Time;durP1;ratioP1;P1;durP2;ratioP2;P2;SDS_P1;SDS_P2;PMS_P1;PMS_P2;Temp;Humidity;BMP_temperature;BMP_pressure;BME280_temperature;BME280_humidity;BME280_pressure;Samples;Min_cycle;Max_cycle;Signal;HPM_P1;HPM_P2
2021/08/05 00:01:57;;;;;;;;;;;;;;;18.93;100.00;98385.53;5074537;28;20494;-79
2021/08/05 00:04:24;;;;;;;;;;;;;;;19.04;100.00;98377.16;5074478;28;20249;-79
2021/08/05 00:06:51;;;;;;;;;;;;;;;19.09;100.00;98381.34;5071632;28;20014;-79
2021/08/05 00:09:19;;;;;;;;;;;;;;;19.07;100.00;98370.50;5045691;28;19987;-79
2021/08/05 00:11:46;;;;;;;;;;;;;;;19.01;100.00;98361.19;5056811;28;20438;-79
2021/08/05 00:14:14;;;;;;;;;;;;;;;18.41;100.00;98368.88;5074523;28;20013;-79
2021/08/05 00:16:40;;;;;;;;;;;;;;;18.75;100.00;98374.50;5074222;28;20383;-79
2021/08/05 00:19:08;;;;;;;;;;;;;;;18.92;100.00;98367.00;5056575;28;20036;-79
2021/08/05 00:21:35;;;;;;;;;;;;;;;18.96;100.00;98359.06;5074112;28;19935;-79
2021/08/05 00:24:17;;;;;;;;;;;;;;;19.07;100.00;98358.41;5063836;28;20388;-78
2021/08/05 00:26:44;;;;;;;;;;;;;;;18.36;100.00;98361.84;5049867;28;19971;-78
2021/08/05 00:29:12;;;;;;;;;;;;;;;18.35;100.00;98360.28;5042559;28;19932;-78
2021/08/05 00:31:39;;;;;;;;;;;;;;;18.49;100.00;98353.06;5038064;28;19925;-78
2021/08/05 00:34:06;;;;;;;;;;;;;;;18.49;100.00;98358.72;5039200;28;20044;-79
2021/08/05 00:36:34;;;;;;;;;;;;;;;18.50;100.00;98366.69;5039133;28;20295;-78
2021/08/05 00:39:02;;;;;;;;;;;;;;;18.27;100.00;98358.34;5047440;28;19925;-78
2021/08/05 00:41:29;;;;;;;;;;;;;;;17.90;100.00;98369.38;5055645;28;19963;-78
2021/08/05 00:43:58;;;;;;;;;;;;;;;17.74;100.00;98367.03;5055788;28;20435;-78
2021/08/05 00:46:25;;;;;;;;;;;;;;;18.19;100.00;98363.63;5039965;28;19928;-79
2021/08/05 00:48:52;;;;;;;;;;;;;;;18.13;100.00;98371.25;5056609;28;19924;-79
2021/08/05 00:51:20;;;;;;;;;;;;;;;18.30;100.00;98358.16;5074022;28;19928;-79
2021/08/05 00:53:48;;;;;;;;;;;;;;;18.52;100.00;98358.50;5056149;28;20019;-79
2021/08/05 00:56:15;;;;;;;;;;;;;;;18.51;100.00;98351.28;5055863;28;20286;-79
2021/08/05 00:58:42;;;;;;;;;;;;;;;18.63;100.00;98352.97;5055613;28;19989;-79
2021/08/05 01:01:13;;;;;;;;;;;;;;;18.49;100.00;98345.34;5039545;28;19928;-79
2021/08/05 01:03:42;;;;;;;;;;;;;;;18.45;100.00;98339.09;5055652;28;19935;-79
2021/08/05 01:06:18;;;;;;;;;;;;;;;17.98;100.00;98342.25;5038951;28;19924;-79
2021/08/05 01:08:50;;;;;;;;;;;;;;;18.14;100.00;98338.13;5034785;28;19967;-79
2021/08/05 01:11:20;;;;;;;;;;;;;;;18.31;100.00;98328.59;5034406;28;19932;-79
2021/08/05 01:13:50;;;;;;;;;;;;;;;18.46;100.00;98322.94;5035560;28;19933;-79
2021/08/05 01:16:21;;;;;;;;;;;;;;;18.45;100.00;98316.47;5053195;28;20015;-79
2021/08/05 01:18:50;;;;;;;;;;;;;;;18.44;100.00;98323.44;5016040;28;20023;-79
2021/08/05 01:21:23;;;;;;;;;;;;;;;18.13;100.00;98322.44;5034729;28;19924;-79
2021/08/05 01:23:56;;;;;;;;;;;;;;;17.39;100.00;98318.91;5053366;28;19928;-79
2021/08/05 01:26:23;;;;;;;;;;;;;;;17.34;100.00;98318.81;5053009;28;19931;-79
2021/08/05 01:28:50;;;;;;;;;;;;;;;17.16;100.00;98324.66;5015532;28;20401;-79
2021/08/05 01:31:21;;;;;;;;;;;;;;;17.52;100.00;98310.16;5033092;28;19929;-79
2021/08/05 01:33:49;;;;;;;;;;;;;;;17.80;100.00;98322.69;5053252;28;20376;-79
2021/08/05 01:36:17;;;;;;;;;;;;;;;17.72;100.00;98313.06;5046488;28;19936;-79
2021/08/05 01:38:47;;;;;;;;;;;;;;;17.45;100.00;98311.34;5035720;28;20300;-79
2021/08/05 01:41:16;;;;;;;;;;;;;;;17.53;100.00;98306.06;5051863;28;19975;-79
2021/08/05 01:43:44;;;;;;;;;;;;;;;17.58;100.00;98303.31;5052127;28;19933;-79
2021/08/05 01:46:11;;;;;;;;;;;;;;;17.70;100.00;98295.81;5051905;28;20394;-79
2021/08/05 01:48:38;;;;;;;;;;;;;;;17.50;100.00;98292.94;5051626;28;19935;-79
2021/08/05 01:51:06;;;;;;;;;;;;;;;17.61;100.00;98285.44;5051939;28;19925;-78
2021/08/05 01:53:33;;;;;;;;;;;;;;;16.92;100.00;98290.06;5051846;28;20035;-78
2021/08/05 01:56:01;;;;;;;;;;;;;;;17.10;100.00;98293.47;5034919;28;19932;-79
2021/08/05 01:58:28;;;;;;;;;;;;;;;17.30;100.00;98292.81;5051536;28;19936;-79
2021/08/05 02:00:56;;;;;;;;;;;;;;;17.33;100.00;98286.19;5051329;28;19928;-79
2021/08/05 02:03:23;;;;;;;;;;;;;;;16.91;100.00;98289.28;5045398;28;19971;-79
2021/08/05 02:05:56;;;;;;;;;;;;;;;17.15;100.00;98286.38;5051713;28;19947;-79
2021/08/05 02:08:40;;;;;;;;;;;;;;;17.29;100.00;98277.94;5047546;28;20368;-79
2021/08/05 02:11:07;;;;;;;;;;;;;;;17.22;100.00;98275.47;5051539;28;20023;-79
2021/08/05 02:13:40;;;;;;;;;;;;;;;17.30;100.00;98284.34;5045742;28;20264;-79
2021/08/05 02:16:11;;;;;;;;;;;;;;;17.36;100.00;98274.69;5035080;28;19924;-78
2021/08/05 02:18:43;;;;;;;;;;;;;;;17.18;100.00;98274.13;5051507;28;19979;-78
2021/08/05 02:21:13;;;;;;;;;;;;;;;17.32;100.00;98274.13;5051779;28;19931;-78
2021/08/05 02:23:40;;;;;;;;;;;;;;;17.40;100.00;98271.69;5055349;28;19925;-78
2021/08/05 02:26:08;;;;;;;;;;;;;;;17.01;100.00;98265.34;5055117;28;20434;-78
2021/08/05 02:28:36;;;;;;;;;;;;;;;16.57;100.00;98267.31;5055433;28;19967;-79
2021/08/05 02:31:03;;;;;;;;;;;;;;;16.39;100.00;98275.91;5055254;28;20482;-79
2021/08/05 02:33:31;;;;;;;;;;;;;;;16.81;100.00;98272.94;5035108;28;20360;-79
2021/08/05 02:35:59;;;;;;;;;;;;;;;16.94;100.00;98270.59;5054944;28;19928;-79
2021/08/05 02:38:27;;;;;;;;;;;;;;;16.95;100.00;98264.47;5042077;28;19924;-78
2021/08/05 02:40:54;;;;;;;;;;;;;;;17.02;100.00;98257.69;5058496;28;19935;-79
2021/08/05 02:43:25;;;;;;;;;;;;;;;17.04;100.00;98257.97;5075237;28;20280;-79
2021/08/05 02:45:52;;;;;;;;;;;;;;;17.02;100.00;98254.84;5075078;28;19924;-79
2021/08/05 02:48:20;;;;;;;;;;;;;;;16.88;100.00;98252.78;5041086;28;20395;-79
2021/08/05 02:50:48;;;;;;;;;;;;;;;16.88;100.00;98239.47;5050898;28;19925;-78
2021/08/05 02:53:16;;;;;;;;;;;;;;;16.74;100.00;98243.06;5061882;28;19931;-79
2021/08/05 02:55:44;;;;;;;;;;;;;;;16.67;100.00;98245.47;5041454;28;19982;-79
2021/08/05 02:58:12;;;;;;;;;;;;;;;16.66;100.00;98244.69;5058082;28;19924;-79
2021/08/05 03:00:39;;;;;;;;;;;;;;;16.51;100.00;98248.75;5041748;28;19925;-79
2021/08/05 03:03:06;;;;;;;;;;;;;;;16.49;100.00;98245.63;5027613;28;20395;-79
2021/08/05 03:05:58;;;;;;;;;;;;;;;16.58;100.00;98239.91;5050248;28;20468;-78
2021/08/05 03:08:25;;;;;;;;;;;;;;;16.48;100.00;98236.38;5073441;28;19925;-79
2021/08/05 03:10:53;;;;;;;;;;;;;;;16.25;100.00;98237.94;5075961;28;20006;-78
2021/08/05 03:13:20;;;;;;;;;;;;;;;16.25;100.00;98231.56;5075694;28;19932;-78
2021/08/05 03:15:47;;;;;;;;;;;;;;;15.87;100.00;98237.88;5057422;28;19931;-78
2021/08/05 03:18:18;;;;;;;;;;;;;;;15.10;100.00;98233.22;5075724;28;19924;-79
2021/08/05 03:20:45;;;;;;;;;;;;;;;15.26;100.00;98240.50;5057703;28;20012;-78
2021/08/05 03:23:12;;;;;;;;;;;;;;;15.61;100.00;98234.00;5057900;28;19924;-79
2021/08/05 03:25:39;;;;;;;;;;;;;;;15.87;100.00;98234.31;5075384;28;19932;-79
2021/08/05 03:28:07;;;;;;;;;;;;;;;16.03;100.00;98231.06;5075642;28;20059;-78
2021/08/05 03:30:34;;;;;;;;;;;;;;;16.06;100.00;98228.06;5075366;28;19990;-78
2021/08/05 03:33:01;;;;;;;;;;;;;;;16.10;100.00;98225.84;5035148;28;19931;-78
2021/08/05 03:35:28;;;;;;;;;;;;;;;16.10;100.00;98214.56;5067568;28;19928;-78
2021/08/05 03:37:55;;;;;;;;;;;;;;;16.00;100.00;98221.53;5075144;28;19924;-78
2021/08/05 03:40:22;;;;;;;;;;;;;;;16.13;100.00;98219.25;5057600;28;19924;-78
2021/08/05 03:42:49;;;;;;;;;;;;;;;16.14;100.00;98209.56;5075198;28;19932;-78
2021/08/05 03:45:17;;;;;;;;;;;;;;;16.05;100.00;98217.28;5074964;28;19925;-78
2021/08/05 03:47:44;;;;;;;;;;;;;;;16.21;100.00;98203.53;5074974;28;19929;-78
2021/08/05 03:50:11;;;;;;;;;;;;;;;16.34;100.00;98210.97;5057386;28;19924;-78
2021/08/05 03:52:40;;;;;;;;;;;;;;;15.71;100.00;98203.72;5057645;28;19939;-78
2021/08/05 03:55:13;;;;;;;;;;;;;;;16.18;100.00;98203.72;5075026;28;19931;-78
2021/08/05 03:57:43;;;;;;;;;;;;;;;16.33;100.00;98193.25;5075083;28;19990;-78
2021/08/05 04:00:12;;;;;;;;;;;;;;;16.08;100.00;98194.53;5057022;28;19929;-78
2021/08/05 04:02:40;;;;;;;;;;;;;;;16.12;100.00;98194.38;5074947;28;19924;-78
2021/08/05 04:05:07;;;;;;;;;;;;;;;15.72;100.00;98189.16;5056677;28;19924;-78
2021/08/05 04:07:34;;;;;;;;;;;;;;;16.13;100.00;98185.44;5074739;28;19925;-78
2021/08/05 04:10:02;;;;;;;;;;;;;;;16.30;100.00;98182.19;5074690;28;20039;-78
2021/08/05 04:12:29;;;;;;;;;;;;;;;16.33;100.00;98178.41;5074616;28;20405;-78
2021/08/05 04:14:56;;;;;;;;;;;;;;;16.36;100.00;98174.63;5074179;28;20387;-78
2021/08/05 04:17:23;;;;;;;;;;;;;;;16.36;100.00;98169.75;5074438;28;20303;-78
2021/08/05 04:19:50;;;;;;;;;;;;;;;16.34;100.00;98166.66;5074607;28;19924;-78
2021/08/05 04:22:17;;;;;;;;;;;;;;;16.42;100.00;98172.69;5074247;28;20003;-78
2021/08/05 04:24:44;;;;;;;;;;;;;;;16.12;100.00;98172.63;5056727;28;19928;-77
2021/08/05 04:27:11;;;;;;;;;;;;;;;16.12;100.00;98166.97;5073843;28;20030;-77
2021/08/05 04:29:39;;;;;;;;;;;;;;;16.23;100.00;98161.56;5073041;28;19929;-77
2021/08/05 04:32:06;;;;;;;;;;;;;;;15.98;100.00;98167.72;5073989;28;20419;-77
2021/08/05 04:34:34;;;;;;;;;;;;;;;16.01;100.00;98166.75;5073322;28;19924;-77
2021/08/05 04:37:02;;;;;;;;;;;;;;;15.76;100.00;98160.84;5073466;28;20518;-77
2021/08/05 04:39:29;;;;;;;;;;;;;;;15.86;100.00;98154.66;5055449;28;19928;-77
2021/08/05 04:41:56;;;;;;;;;;;;;;;16.19;100.00;98154.56;5055617;28;20299;-78
2021/08/05 04:44:24;;;;;;;;;;;;;;;16.32;100.00;98145.81;5038792;28;19931;-77
2021/08/05 04:46:51;;;;;;;;;;;;;;;16.24;100.00;98149.03;5071953;28;20371;-78
2021/08/05 04:49:18;;;;;;;;;;;;;;;16.44;100.00;98142.75;5073195;28;20355;-78
2021/08/05 04:51:45;;;;;;;;;;;;;;;16.42;100.00;98133.22;5038994;28;19947;-78
2021/08/05 04:54:12;;;;;;;;;;;;;;;16.48;100.00;98131.31;5073491;28;20372;-78
2021/08/05 04:56:39;;;;;;;;;;;;;;;16.45;100.00;98126.63;5073457;28;19924;-78
2021/08/05 04:59:07;;;;;;;;;;;;;;;16.27;100.00;98122.69;5055871;28;19960;-78
2021/08/05 05:01:34;;;;;;;;;;;;;;;16.40;100.00;98121.63;5055687;28;19973;-78
2021/08/05 05:04:02;;;;;;;;;;;;;;;16.02;100.00;98111.94;5073612;28;19925;-78
2021/08/05 05:06:29;;;;;;;;;;;;;;;16.15;100.00;98114.50;5055669;28;19982;-78
2021/08/05 05:08:57;;;;;;;;;;;;;;;16.27;100.00;98121.91;5055526;28;20011;-78
2021/08/05 05:11:24;;;;;;;;;;;;;;;16.42;100.00;98111.41;5039052;28;20320;-78
2021/08/05 05:13:51;;;;;;;;;;;;;;;16.22;100.00;98112.09;5073236;28;19925;-78
2021/08/05 05:16:18;;;;;;;;;;;;;;;16.31;100.00;98108.41;5073357;28;19978;-78
2021/08/05 05:18:45;;;;;;;;;;;;;;;16.27;100.00;98100.16;5039008;28;19929;-77
2021/08/05 05:21:12;;;;;;;;;;;;;;;16.14;100.00;98110.94;5055614;28;19925;-78
2021/08/05 05:23:40;;;;;;;;;;;;;;;16.29;100.00;98119.38;5055661;28;20391;-78
2021/08/05 05:26:07;;;;;;;;;;;;;;;16.40;100.00;98113.19;5035768;28;19932;-78
2021/08/05 05:28:35;;;;;;;;;;;;;;;16.47;100.00;98105.13;5065003;28;20303;-77
2021/08/05 05:31:47;;;;;;;;;;;;;;;16.34;100.00;98103.84;5090936;28;19967;-78
2021/08/05 05:34:14;;;;;;;;;;;;;;;16.37;100.00;98103.66;5090603;28;19932;-78
2021/08/05 05:36:41;;;;;;;;;;;;;;;16.17;100.00;98104.31;5090924;28;19924;-78
2021/08/05 05:39:09;;;;;;;;;;;;;;;16.54;100.00;98101.16;5090659;28;19981;-78
2021/08/05 05:41:38;;;;;;;;;;;;;;;16.01;100.00;98110.41;5090700;28;19928;-78
2021/08/05 05:44:05;;;;;;;;;;;;;;;16.54;100.00;98101.16;5123496;28;19924;-78
2021/08/05 05:46:32;;;;;;;;;;;;;;;16.72;100.00;98093.25;5090546;28;20283;-78
2021/08/05 05:48:59;;;;;;;;;;;;;;;16.14;100.00;98091.19;5090603;28;19925;-78
2021/08/05 05:51:27;;;;;;;;;;;;;;;16.52;100.00;98087.56;5090405;28;19924;-78
2021/08/05 05:53:55;;;;;;;;;;;;;;;16.04;100.00;98092.53;5090367;27;20435;-78
2021/08/05 05:56:22;;;;;;;;;;;;;;;16.04;100.00;98080.47;5090162;28;19925;-78
2021/08/05 05:58:49;;;;;;;;;;;;;;;16.47;100.00;98087.44;5123230;28;19928;-78
2021/08/05 06:01:16;;;;;;;;;;;;;;;17.21;100.00;98069.91;5090244;28;20368;-78
2021/08/05 06:03:44;;;;;;;;;;;;;;;17.42;100.00;98074.31;5090199;28;20019;-78
2021/08/05 06:06:13;;;;;;;;;;;;;;;17.75;100.00;98066.31;5088759;28;19924;-78
2021/08/05 06:08:40;;;;;;;;;;;;;;;17.66;100.00;98072.09;5089696;28;19931;-78
2021/08/05 06:11:07;;;;;;;;;;;;;;;18.08;100.00;98058.22;5089534;28;19925;-78
2021/08/05 06:13:34;;;;;;;;;;;;;;;18.22;100.00;98068.63;5089444;28;20387;-78
2021/08/05 06:16:02;;;;;;;;;;;;;;;18.38;100.00;98062.41;5089384;28;19932;-78
2021/08/05 06:18:29;;;;;;;;;;;;;;;17.37;100.00;98066.56;5089007;28;20386;-78
2021/08/05 06:20:57;;;;;;;;;;;;;;;17.81;100.00;98067.91;5090437;28;19934;-78
2021/08/05 06:23:24;;;;;;;;;;;;;;;18.12;100.00;98052.31;5090306;28;19931;-78
2021/08/05 06:25:51;;;;;;;;;;;;;;;18.58;100.00;98056.69;5088563;28;19924;-78
2021/08/05 06:28:18;;;;;;;;;;;;;;;18.82;100.00;98050.69;5091443;28;20346;-78
2021/08/05 06:30:47;;;;;;;;;;;;;;;19.14;100.00;98041.66;5067948;28;19925;-78
2021/08/05 06:33:14;;;;;;;;;;;;;;;19.28;100.00;98034.31;5068082;28;20023;-78
2021/08/05 06:35:42;;;;;;;;;;;;;;;19.14;100.00;98029.56;5069238;28;20296;-78
2021/08/05 06:38:09;;;;;;;;;;;;;;;19.01;100.00;98026.38;5067868;28;19972;-78
2021/08/05 06:40:36;;;;;;;;;;;;;;;18.30;100.00;98044.28;5069080;28;19937;-78
2021/08/05 06:43:03;;;;;;;;;;;;;;;18.62;100.00;98037.41;5087571;28;19932;-78
2021/08/05 06:45:30;;;;;;;;;;;;;;;19.19;100.00;98038.06;5068992;28;19924;-77
2021/08/05 06:47:58;;;;;;;;;;;;;;;17.36;100.00;98033.94;5067392;28;19929;-77
2021/08/05 06:50:25;;;;;;;;;;;;;;;18.19;100.00;98026.44;5065238;28;19931;-77
2021/08/05 06:52:52;;;;;;;;;;;;;;;18.39;100.00;98029.25;5054471;28;19960;-76
2021/08/05 06:55:19;;;;;;;;;;;;;;;18.62;100.00;98019.66;5055517;28;19929;-79
2021/08/05 06:57:46;;;;;;;;;;;;;;;19.19;100.00;98015.41;5071986;28;20372;-80
2021/08/05 07:00:16;;;;;;;;;;;;;;;18.73;100.00;98002.78;5064351;28;19932;-81
2021/08/05 07:02:43;;;;;;;;;;;;;;;18.49;100.00;98005.94;5040470;28;19925;-80
2021/08/05 07:05:10;;;;;;;;;;;;;;;17.61;100.00;98011.44;5071038;28;19924;-80
2021/08/05 07:07:38;;;;;;;;;;;;;;;17.84;100.00;98001.19;5055770;28;19947;-80
2021/08/05 07:10:05;;;;;;;;;;;;;;;18.37;100.00;98004.28;5047043;28;20027;-80
2021/08/05 07:12:32;;;;;;;;;;;;;;;18.60;100.00;98003.19;5087647;28;19932;-81
2021/08/05 07:15:00;;;;;;;;;;;;;;;18.49;100.00;97997.47;5054744;28;20027;-80
2021/08/05 07:17:27;;;;;;;;;;;;;;;18.81;100.00;97993.31;5106350;28;19924;-80
2021/08/05 07:19:54;;;;;;;;;;;;;;;19.92;100.00;97991.03;5076010;28;20330;-81
2021/08/05 07:22:21;;;;;;;;;;;;;;;21.12;100.00;97978.16;5061524;28;19925;-81
2021/08/05 07:24:48;;;;;;;;;;;;;;;22.30;100.00;97967.25;5074701;28;19924;-81
2021/08/05 07:27:17;;;;;;;;;;;;;;;23.56;100.00;97955.94;5075727;28;19929;-81
2021/08/05 07:29:44;;;;;;;;;;;;;;;25.41;100.00;97953.97;5075395;28;19924;-81
2021/08/05 07:32:11;;;;;;;;;;;;;;;26.34;100.00;97931.88;5073828;28;19932;-80
2021/08/05 07:34:39;;;;;;;;;;;;;;;26.39;100.00;97933.06;5057154;28;20299;-80
2021/08/05 07:37:06;;;;;;;;;;;;;;;27.15;100.00;97929.53;5074102;28;19925;-80
2021/08/05 07:39:33;;;;;;;;;;;;;;;28.16;100.00;97926.03;5107733;28;20029;-80
2021/08/05 07:42:00;;;;;;;;;;;;;;;28.87;100.00;97925.03;5090113;28;19978;-81
2021/08/05 07:44:28;;;;;;;;;;;;;;;29.45;100.00;97919.78;5073511;28;19932;-80
2021/08/05 07:46:55;;;;;;;;;;;;;;;29.97;100.00;97908.69;5073835;28;20015;-80
2021/08/05 07:49:22;;;;;;;;;;;;;;;30.49;100.00;97899.00;5074119;28;19924;-80
2021/08/05 07:51:49;;;;;;;;;;;;;;;29.66;100.00;97894.44;5061513;28;19928;-81
2021/08/05 07:54:16;;;;;;;;;;;;;;;27.22;100.00;97905.13;5106616;28;20020;-80
2021/08/05 07:56:44;;;;;;;;;;;;;;;25.53;100.00;97898.09;5074721;28;20368;-80
2021/08/05 07:59:11;;;;;;;;;;;;;;;26.63;100.00;97898.38;5074593;28;19925;-79
2021/08/05 08:01:38;;;;;;;;;;;;;;;28.26;100.00;97886.84;5074543;28;20330;-80
2021/08/05 08:04:07;;;;;;;;;;;;;;;28.79;100.00;97884.78;5074729;28;19946;-80
2021/08/05 08:06:34;;;;;;;;;;;;;;;27.65;100.00;97880.13;5072832;28;20019;-80
2021/08/05 08:09:02;;;;;;;;;;;;;;;25.51;100.00;97878.63;5074321;28;19947;-80
2021/08/05 08:11:31;;;;;;;;;;;;;;;23.95;100.00;97902.00;5072850;28;20014;-80
2021/08/05 08:13:58;;;;;;;;;;;;;;;23.50;100.00;97903.13;5072972;28;19931;-80
2021/08/05 08:16:25;;;;;;;;;;;;;;;24.22;100.00;97891.47;5069095;28;19924;-79
2021/08/05 08:18:53;;;;;;;;;;;;;;;24.01;100.00;97893.34;5074233;28;20019;-79
2021/08/05 08:21:20;;;;;;;;;;;;;;;24.35;100.00;97882.94;5072552;28;19929;-80
2021/08/05 08:23:48;;;;;;;;;;;;;;;25.11;100.00;97882.84;5074090;28;19925;-80
2021/08/05 08:26:16;;;;;;;;;;;;;;;26.27;100.00;97880.28;5059497;28;19925;-80
2021/08/05 08:28:43;;;;;;;;;;;;;;;27.06;100.00;97883.41;5072725;28;19973;-80
2021/08/05 08:31:10;;;;;;;;;;;;;;;25.51;100.00;97858.63;5053758;28;19947;-79
2021/08/05 08:33:37;;;;;;;;;;;;;;;25.85;100.00;97856.56;5062780;28;19924;-77
2021/08/05 08:36:05;;;;;;;;;;;;;;;25.39;100.00;97877.34;5055570;28;20407;-79
2021/08/05 08:38:33;;;;;;;;;;;;;;;26.34;100.00;97886.06;5054971;28;20027;-80
2021/08/05 08:41:00;;;;;;;;;;;;;;;25.94;100.00;97873.25;5053852;28;19928;-79
2021/08/05 08:43:28;;;;;;;;;;;;;;;24.59;100.00;97863.56;5053709;28;19925;-79
2021/08/05 08:45:55;;;;;;;;;;;;;;;24.36;100.00;97870.19;5053577;28;19925;-80
2021/08/05 08:48:27;;;;;;;;;;;;;;;25.78;100.00;97871.53;5051294;28;20459;-86
2021/08/05 08:50:58;;;;;;;;;;;;;;;25.02;100.00;97865.38;5047050;28;19925;-79
2021/08/05 08:53:29;;;;;;;;;;;;;;;25.41;100.00;97869.00;5047300;28;20020;-80
2021/08/05 08:55:57;;;;;;;;;;;;;;;27.26;100.00;97843.25;5050342;28;20312;-80
2021/08/05 08:58:25;;;;;;;;;;;;;;;26.99;100.00;97846.88;5049199;28;19925;-81
2021/08/05 09:00:52;;;;;;;;;;;;;;;26.58;100.00;97844.84;5050456;28;19978;-81
2021/08/05 09:03:20;;;;;;;;;;;;;;;25.58;100.00;97866.50;5049888;28;19925;-81
2021/08/05 09:05:48;;;;;;;;;;;;;;;27.50;100.00;97856.34;5040082;28;19929;-79
2021/08/05 09:08:15;;;;;;;;;;;;;;;27.16;100.00;97838.56;5047388;28;19933;-79
2021/08/05 09:11:03;;;;;;;;;;;;;;;25.89;100.00;97845.53;5065189;28;20261;-79
2021/08/05 09:13:30;;;;;;;;;;;;;;;27.00;100.00;97825.47;5048412;28;19929;-78
2021/08/05 09:15:59;;;;;;;;;;;;;;;26.23;100.00;97826.22;5054453;28;19930;-78
2021/08/05 09:18:32;;;;;;;;;;;;;;;26.32;100.00;97837.16;5071022;28;19924;-78
2021/08/05 09:21:29;;;;;;;;;;;;;;;24.17;100.00;97829.53;5044933;28;19932;-74
2021/08/05 09:24:06;;;;;;;;;;;;;;;24.43;100.00;97829.59;5064593;28;19924;-74
2021/08/05 09:26:39;;;;;;;;;;;;;;;24.00;100.00;97834.75;5047649;28;19925;-74
2021/08/05 09:29:08;;;;;;;;;;;;;;;24.86;100.00;97824.38;5048558;28;20019;-76
2021/08/05 09:31:36;;;;;;;;;;;;;;;24.54;100.00;97815.88;5046527;28;20021;-76
2021/08/05 09:34:08;;;;;;;;;;;;;;;22.89;100.00;97835.50;5049258;28;19975;-76
2021/08/05 09:36:36;;;;;;;;;;;;;;;23.16;100.00;97830.78;5047526;28;19929;-76
2021/08/05 09:39:23;;;;;;;;;;;;;;;21.87;100.00;97846.81;5057744;28;19967;-76
2021/08/05 09:41:55;;;;;;;;;;;;;;;22.12;100.00;97837.06;5042835;28;19936;-76
2021/08/05 09:44:22;;;;;;;;;;;;;;;23.11;100.00;97824.59;5048806;28;19958;-74
2021/08/05 09:47:01;;;;;;;;;;;;;;;23.11;100.00;97816.03;5047876;28;20916;-75
2021/08/05 09:49:31;;;;;;;;;;;;;;;22.11;100.00;97818.47;5049182;28;20356;-77
2021/08/05 09:51:59;;;;;;;;;;;;;;;22.34;100.00;97811.22;5081924;28;20351;-77
2021/08/05 09:54:48;;;;;;;;;;;;;;;22.12;100.00;97807.81;5044398;28;19933;-76
2021/08/05 09:57:23;;;;;;;;;;;;;;;23.01;100.00;97797.81;5047636;28;19933;-75
2021/08/05 10:00:00;;;;;;;;;;;;;;;23.45;100.00;97793.59;5049070;28;19960;-77
2021/08/05 10:02:41;;;;;;;;;;;;;;;22.66;100.00;97778.03;5079505;28;19928;-78
2021/08/05 10:05:10;;;;;;;;;;;;;;;22.16;100.00;97774.94;5048830;28;19925;-80
2021/08/05 10:07:44;;;;;;;;;;;;;;;22.45;100.00;97779.81;5049448;28;19925;-81
2021/08/05 10:10:12;;;;;;;;;;;;;;;22.83;100.00;97775.78;5047768;28;20317;-77
2021/08/05 10:12:41;;;;;;;;;;;;;;;22.75;100.00;97769.13;5057113;28;20371;-76
2021/08/05 10:15:33;;;;;;;;;;;;;;;23.02;100.00;97770.84;5078502;28;19932;-77
2021/08/05 10:18:01;;;;;;;;;;;;;;;22.88;100.00;97766.41;5079609;28;20011;-77
2021/08/05 10:20:29;;;;;;;;;;;;;;;22.37;100.00;97775.25;5068549;28;19931;-78
2021/08/05 10:22:57;;;;;;;;;;;;;;;22.73;100.00;97760.34;5050979;28;19929;-78
2021/08/05 10:25:26;;;;;;;;;;;;;;;22.69;100.00;97754.19;5053315;28;20406;-78
2021/08/05 10:27:55;;;;;;;;;;;;;;;22.29;100.00;97760.88;5069279;28;19925;-78
2021/08/05 10:30:22;;;;;;;;;;;;;;;21.92;100.00;97760.69;5035268;28;20435;-78
2021/08/05 10:32:51;;;;;;;;;;;;;;;21.94;100.00;97769.47;5051453;28;19928;-78
2021/08/05 10:35:19;;;;;;;;;;;;;;;22.17;100.00;97765.13;5035347;28;19946;-78
2021/08/05 10:37:48;;;;;;;;;;;;;;;22.40;100.00;97766.41;5056145;28;19932;-76
2021/08/05 10:40:18;;;;;;;;;;;;;;;22.47;100.00;97762.97;5052052;28;19925;-76
2021/08/05 10:42:46;;;;;;;;;;;;;;;22.16;100.00;97751.44;5054146;28;20344;-77
2021/08/05 10:45:15;;;;;;;;;;;;;;;22.53;100.00;97740.94;5051061;28;20016;-77
2021/08/05 10:47:50;;;;;;;;;;;;;;;22.13;100.00;97730.50;5050660;28;20392;-77
2021/08/05 10:50:19;;;;;;;;;;;;;;;22.84;100.00;97723.19;5083076;28;19932;-77
2021/08/05 10:52:48;;;;;;;;;;;;;;;21.57;100.00;97715.25;5060428;28;20441;-77
2021/08/05 10:55:15;;;;;;;;;;;;;;;22.74;100.00;97721.28;5054080;28;19929;-77
2021/08/05 10:57:43;;;;;;;;;;;;;;;22.64;100.00;97720.88;5064810;28;20390;-76
2021/08/05 11:00:14;;;;;;;;;;;;;;;21.22;100.00;97715.25;5067287;28;19935;-76
2021/08/05 11:02:46;;;;;;;;;;;;;;;22.49;100.00;97729.03;5056482;28;19931;-76
2021/08/05 11:05:33;;;;;;;;;;;;;;;21.94;100.00;97717.53;5052459;28;19929;-78
2021/08/05 11:08:07;;;;;;;;;;;;;;;22.43;100.00;97716.97;5043567;28;20011;-77
2021/08/05 11:10:36;;;;;;;;;;;;;;;20.96;100.00;97721.38;5049288;28;20383;-76
2021/08/05 11:13:06;;;;;;;;;;;;;;;20.43;100.00;97726.78;5049487;28;19968;-76
2021/08/05 11:15:34;;;;;;;;;;;;;;;21.72;100.00;97717.72;5048872;28;20001;-76
2021/08/05 11:20:35;;;;;;;;;;;;;;;20.76;100.00;97712.44;5065355;28;19983;-77
2021/08/05 11:23:02;;;;;;;;;;;;;;;20.06;100.00;97712.16;5065230;28;19925;-77
2021/08/05 11:25:48;;;;;;;;;;;;;;;20.28;100.00;97709.31;5057746;28;19974;-77
2021/08/05 11:28:19;;;;;;;;;;;;;;;20.79;100.00;97697.97;5051867;28;19928;-77
2021/08/05 11:30:49;;;;;;;;;;;;;;;21.30;100.00;97699.19;5051276;28;19932;-78
2021/08/05 11:33:44;;;;;;;;;;;;;;;20.14;100.00;97713.19;5084232;28;19974;-80
2021/08/05 11:36:19;;;;;;;;;;;;;;;20.64;100.00;97693.91;5044593;28;19967;-77
2021/08/05 11:39:05;;;;;;;;;;;;;;;20.79;100.00;97703.66;5051395;28;20304;-77
2021/08/05 11:41:44;;;;;;;;;;;;;;;20.80;100.00;97695.88;5050405;28;19946;-77
2021/08/05 11:44:30;;;;;;;;;;;;;;;21.14;100.00;97683.81;5052335;28;19929;-76
2021/08/05 11:46:57;;;;;;;;;;;;;;;21.67;100.00;97690.09;5074336;28;19931;-77
2021/08/05 11:49:34;;;;;;;;;;;;;;;21.18;100.00;97675.00;5053566;28;19932;-77
2021/08/05 11:52:10;;;;;;;;;;;;;;;20.50;100.00;97684.44;5086917;28;19940;-79
2021/08/05 11:54:40;;;;;;;;;;;;;;;20.27;100.00;97662.38;5055000;28;19925;-79
2021/08/05 11:57:11;;;;;;;;;;;;;;;21.31;100.00;97670.25;5054954;28;20031;-79
2021/08/05 11:59:39;;;;;;;;;;;;;;;21.07;100.00;97655.22;5054652;28;19925;-77
2021/08/05 12:02:10;;;;;;;;;;;;;;;20.39;100.00;97649.66;5054897;28;19925;-77
2021/08/05 12:04:38;;;;;;;;;;;;;;;20.61;100.00;97649.56;5055091;28;19932;-79
2021/08/05 12:07:15;;;;;;;;;;;;;;;20.87;100.00;97649.94;5054575;28;19929;-79
2021/08/05 12:09:42;;;;;;;;;;;;;;;20.62;100.00;97648.25;5054538;28;19929;-77
2021/08/05 12:12:09;;;;;;;;;;;;;;;20.48;100.00;97638.81;5054252;28;19925;-77
2021/08/05 12:14:36;;;;;;;;;;;;;;;20.53;100.00;97637.22;5036928;28;19931;-77
2021/08/05 12:17:04;;;;;;;;;;;;;;;20.58;100.00;97619.41;5101092;28;19925;-77
2021/08/05 12:20:07;;;;;;;;;;;;;;;20.52;100.00;97604.50;5111377;27;19938;-78
2021/08/05 12:22:38;;;;;;;;;;;;;;;21.16;100.00;97609.44;5107310;28;19924;-78
2021/08/05 12:25:10;;;;;;;;;;;;;;;20.60;100.00;97602.63;5100876;28;20027;-78
2021/08/05 12:27:37;;;;;;;;;;;;;;;20.81;100.00;97612.31;5111302;28;19924;-78
2021/08/05 12:30:07;;;;;;;;;;;;;;;21.72;100.00;97610.44;5110229;27;19924;-78
2021/08/05 12:32:53;;;;;;;;;;;;;;;22.21;100.00;97606.28;5111085;27;19927;-78
2021/08/05 12:35:21;;;;;;;;;;;;;;;21.62;100.00;97588.59;5110055;28;20302;-79
2021/08/05 12:38:02;;;;;;;;;;;;;;;21.55;100.00;97572.94;5111062;28;19927;-78
2021/08/05 12:40:29;;;;;;;;;;;;;;;21.66;100.00;97587.00;5111645;28;19924;-81
2021/08/05 12:42:57;;;;;;;;;;;;;;;21.86;100.00;97575.19;5089704;28;19981;-80
2021/08/05 12:45:25;;;;;;;;;;;;;;;21.81;100.00;97564.63;5108330;28;20445;-81
2021/08/05 12:47:53;;;;;;;;;;;;;;;21.86;100.00;97558.13;5120228;27;19932;-81
2021/08/05 12:50:20;;;;;;;;;;;;;;;22.12;100.00;97558.31;5115699;28;19924;-81